Historyczne dane pomiarowe

Dodano dane terminowe – wersja testowa.

Dane z okresu 1951-2019

Wersja bazy: 1.34 [2019-03-16, lista zmian], aktualizacja planowana na 2019-04-15

Dane meteo z obszaru Polski uzyskane na podstawie danych udostępnionych przez Instytut Meteorologii i Gospodarki Wodnej – Państwowy Instytut Badawczy.

 

Wybierz Datę:    

       

TemperaturaWilgotnośćWiatrCiśnienieOpadyŚniegCzas trwania zjawisk
 Stacja t tx tn tng RH VA  wxwx mslp ppp RRR   cm mm wxwxwxwxwxwxwx
1983-08-13 14.2 19.1 12.0- 90.5- 7.0 3.7---- 5.4------------
1983-08-14 12.6 15.2 11.0- 87.5- 3.7 3.0---- 0.2------------
1983-08-15 15.0 20.6 7.2- 75.5- 0.7 0.3---- 0.0------------
1983-08-16 17.7 23.7 12.2- 59.0- 0.7 6.0---- 0.0------------
1983-08-17 20.4 25.5 14.7- 59.0- 1.7 2.3---- 0.0------------
1983-08-18 18.9 24.8 12.6- 76.0- 7.0 2.0---- 0.0------------
1983-08-19 18.0 24.2 10.9- 75.8- 2.0 0.3---- 0.0------------
1983-08-20 17.0 23.6 9.3- 73.3- 1.0 0.7---- 0.0------------
1983-08-21 17.1 24.1 8.4- 72.3- 0.0 2.3---- 0.0------------
1983-08-22 17.8 25.2 11.0- 74.0- 1.7 1.3---- 0.0------------
1983-08-23 16.7 25.5 9.3- 79.8- 0.7 0.7---- 0.0------------
1983-08-24 18.7 25.5 12.3- 77.3- 3.7 1.3---- 0.0------------
1983-08-25 18.8 25.1 13.7- 72.0- 2.3 0.7---- 0.0------------
1983-08-26 16.6 22.2 10.0- 74.5- 1.7 1.3---- 0.0------------
1983-08-27 14.8 22.8 7.0- 68.5- 3.0 1.3---- 0.0------------
1983-08-28 16.0 25.1 6.7- 71.5- 1.3 1.0---- 0.0------------
1983-08-29 16.0 21.9 9.9- 79.8- 3.7 1.0---- 0.0------------
1983-08-30 16.1 21.9 7.0- 63.8- 0.3 3.0---- 0.0------------
1983-08-31 16.4 26.6 6.3- 78.3- 1.0 1.3---- 0.0------------
1983-09-01 18.5 27.1 11.3- 75.0- 0.7 2.0---- 0.0------------
1983-09-02 17.8 26.3 10.6- 68.8- 0.7 1.3---- 0.0------------
1983-09-03 18.5 25.7 10.1- 51.0- 3.3 2.7---- 1.5------------
1983-09-04 12.6 20.6 9.9- 97.0- 8.0 2.3---- 5.4------------
1983-09-05 16.0 21.1 11.7- 81.5- 4.3 1.7---- 0.0------------
1983-09-06 14.6 19.0 11.4- 68.0- 4.7 3.3---- 0.0------------
1983-09-07 9.0 12.9 6.4- 87.3- 6.3 3.0---- 0.5------------
1983-09-08 9.2 15.0 5.6- 80.8- 4.3 4.0---- 0.0------------
1983-09-09 13.4 19.2 5.7- 60.3- 4.3 11.3---- 0.0------------
1983-09-10 18.8 23.7 14.4- 53.5- 2.3 4.3---- 0.0------------
1983-09-11 22.1 27.2 19.1- 61.8- 1.7 8.7---- 1.6------------
1465.4 ms

 

Źródłem pochodzenia danych jest Instytut Meteorologii i Gospodarki Wodnej – Państwowy Instytut Badawczy. Dane Instytutu Meteorologii i Gospodarki Wodnej – Państwowego Instytutu Badawczego zostały przetworzone.

Dane źródłowe można odnaleźć na stronie https://dane.imgw.pl